createdAt,value
2016-04-11T00:00:21.287Z,0
2016-04-11T00:01:21.304Z,0
2016-04-11T00:02:21.370Z,0
2016-04-11T00:03:21.420Z,0
2016-04-11T00:04:21.500Z,0
2016-04-11T00:05:21.550Z,0
2016-04-11T00:06:21.567Z,0
2016-04-11T00:07:21.649Z,0
2016-04-11T00:08:21.698Z,0
2016-04-11T00:09:21.717Z,0
2016-04-11T00:10:21.782Z,0
2016-04-11T00:11:21.864Z,0
2016-04-11T00:12:21.725Z,0
2016-04-11T00:13:21.930Z,0
2016-04-11T00:14:22.027Z,0
2016-04-11T00:15:22.031Z,0
2016-04-11T00:16:22.112Z,0
2016-04-11T00:17:22.130Z,0
2016-04-11T00:18:22.195Z,0
2016-04-11T00:19:22.276Z,0
2016-04-11T00:20:22.310Z,0
2016-04-11T00:21:22.344Z,0
2016-04-11T00:22:22.425Z,0
2016-04-11T00:23:22.443Z,0
2016-04-11T00:24:22.492Z,0
2016-04-11T00:25:21.839Z,0
2016-04-11T00:26:22.466Z,0
2016-04-11T00:27:22.657Z,0
2016-04-11T00:28:22.738Z,0
2016-04-11T00:29:22.772Z,0
2016-04-11T00:30:22.836Z,0
2016-04-11T00:31:22.855Z,0
2016-04-11T00:32:22.921Z,0
2016-04-11T00:33:23.245Z,0
2016-04-11T00:34:23.098Z,0
2016-04-11T00:35:24.076Z,0
2016-04-11T00:36:23.171Z,0
2016-04-11T00:37:23.174Z,0
2016-04-11T00:38:23.208Z,0
2016-04-11T00:39:23.289Z,0
2016-04-11T00:40:23.354Z,0
2016-04-11T00:41:23.372Z,0
2016-04-11T00:42:23.452Z,0
2016-04-11T00:43:23.471Z,0
2016-04-11T00:44:23.552Z,0
2016-04-11T00:45:23.602Z,0
2016-04-11T00:46:23.604Z,0
2016-04-11T00:47:23.701Z,0
2016-04-11T00:48:23.751Z,0
2016-04-11T00:49:23.769Z,0
2016-04-11T00:50:23.834Z,0
2016-04-11T00:51:23.915Z,0
2016-04-11T00:52:23.934Z,0
2016-04-11T00:53:23.983Z,0
2016-04-11T00:54:24.157Z,0
2016-04-11T00:55:24.113Z,0
2016-04-11T00:56:24.178Z,0
2016-04-11T00:57:24.181Z,0
2016-04-11T00:58:24.262Z,0
2016-04-11T00:59:24.311Z,0
2016-04-11T01:00:24.330Z,0
2016-04-11T01:01:24.395Z,0
2016-04-11T01:02:24.491Z,0
2016-04-11T01:03:24.494Z,0
2016-04-11T01:04:24.558Z,0
2016-04-11T01:05:24.639Z,0
2016-04-11T01:06:24.674Z,0
2016-04-11T01:07:24.724Z,0
2016-04-11T01:08:24.773Z,0
2016-04-11T01:09:24.891Z,0
2016-04-11T01:10:24.893Z,0
2016-04-11T01:11:24.927Z,0
2016-04-11T01:12:24.945Z,0
2016-04-11T01:13:25.041Z,0
2016-04-11T01:14:25.076Z,0
2016-04-11T01:15:25.109Z,0
2016-04-11T01:16:25.207Z,0
2016-04-11T01:17:25.240Z,0
2016-04-11T01:18:25.258Z,0
2016-04-11T01:19:25.354Z,0
2016-04-11T01:20:24.654Z,0
2016-04-11T01:21:25.438Z,0
2016-04-11T01:22:25.487Z,0
2016-04-11T01:23:25.568Z,0
2016-04-11T01:24:25.586Z,0
2016-04-11T01:25:25.636Z,0
2016-04-11T01:26:25.733Z,0
2016-04-11T01:27:25.736Z,0
2016-04-11T01:28:25.784Z,0
2016-04-11T01:29:25.866Z,0
2016-04-11T01:30:25.900Z,0
2016-04-11T01:31:25.933Z,0
2016-04-11T01:32:26.014Z,0
2016-04-11T01:33:25.892Z,0
2016-04-11T01:34:26.145Z,0
2016-04-11T01:35:26.163Z,0
2016-04-11T01:36:26.197Z,0
2016-04-11T01:37:26.277Z,0
2016-04-11T01:38:26.327Z,0
2016-04-11T01:39:26.346Z,0
2016-04-11T01:40:26.441Z,0
2016-04-11T01:41:26.336Z,0
2016-04-11T01:42:26.494Z,0
2016-04-11T01:43:26.591Z,0
2016-04-11T01:44:26.640Z,0
2016-04-11T01:45:26.674Z,0
2016-04-11T01:46:26.740Z,0
2016-04-11T01:47:26.790Z,0
2016-04-11T01:48:26.854Z,0
2016-04-11T01:49:26.904Z,0
2016-04-11T01:50:26.906Z,0
2016-04-11T01:51:26.987Z,0
2016-04-11T01:52:27.053Z,0
2016-04-11T01:53:27.087Z,0
2016-04-11T01:54:27.152Z,0
2016-04-11T01:55:27.045Z,0
2016-04-11T01:56:27.064Z,0
2016-04-11T01:57:27.284Z,0
2016-04-11T01:58:27.350Z,0
2016-04-11T01:59:27.415Z,0
2016-04-11T02:00:27.464Z,0
2016-04-11T02:01:27.483Z,0
2016-04-11T02:02:27.563Z,0
2016-04-11T02:03:27.628Z,0
2016-04-11T02:04:27.647Z,0
2016-04-11T02:05:27.713Z,0
2016-04-11T02:06:27.777Z,0
2016-04-11T02:07:27.797Z,0
2016-04-11T02:08:27.830Z,0
2016-04-11T02:09:27.927Z,0
2016-04-11T02:10:27.976Z,0
2016-04-11T02:11:28.025Z,0
2016-04-11T02:12:28.060Z,0
2016-04-11T02:13:28.109Z,0
2016-04-11T02:14:28.190Z,0
2016-04-11T02:15:28.207Z,0
2016-04-11T02:16:28.243Z,0
2016-04-11T02:17:28.338Z,0
2016-04-11T02:18:28.404Z,0
2016-04-11T02:19:28.421Z,0
2016-04-11T02:20:28.504Z,0
2016-04-11T02:21:28.552Z,0
2016-04-11T02:22:28.554Z,0
2016-04-11T02:23:28.651Z,0
2016-04-11T02:24:28.670Z,0
2016-04-11T02:25:28.751Z,0
2016-04-11T02:26:28.800Z,0
2016-04-11T02:27:28.850Z,0
2016-04-11T02:28:28.930Z,0
2016-04-11T02:29:28.980Z,0
2016-04-11T02:30:28.998Z,0
2016-04-11T02:31:29.048Z,0
2016-04-11T02:32:29.113Z,0
2016-04-11T02:33:29.132Z,0
2016-04-11T02:34:29.197Z,0
2016-04-11T02:35:29.278Z,0
2016-04-11T02:36:29.280Z,0
2016-04-11T02:37:29.392Z,0
2016-04-11T02:38:29.411Z,0
2016-04-11T02:39:29.492Z,0
2016-04-11T02:40:29.557Z,0
2016-04-11T02:41:29.560Z,0
2016-04-11T02:42:29.687Z,0
2016-04-11T02:43:29.690Z,0
2016-04-11T02:44:29.692Z,0
2016-04-11T02:45:29.757Z,0
2016-04-11T02:46:29.838Z,0
2016-04-11T02:47:29.872Z,0
2016-04-11T02:48:29.891Z,0
2016-04-11T02:49:29.924Z,0
2016-04-11T02:50:29.989Z,0
2016-04-11T02:51:30.039Z,0
2016-04-11T02:52:30.089Z,0
2016-04-11T02:53:30.154Z,0
2016-04-11T02:54:30.187Z,0
2016-04-11T02:55:30.237Z,0
2016-04-11T02:56:30.317Z,0
2016-04-11T02:57:30.353Z,0
2016-04-11T02:58:30.401Z,0
2016-04-11T02:59:29.717Z,0
2016-04-11T03:00:30.501Z,0
2016-04-11T03:01:30.551Z,0
2016-04-11T03:02:30.616Z,0
2016-04-11T03:03:30.649Z,0
2016-04-11T03:04:30.714Z,0
2016-04-11T03:05:30.764Z,0
2016-04-11T03:06:30.814Z,0
2016-04-11T03:07:30.863Z,0
2016-04-11T03:08:30.772Z,0
2016-04-11T03:09:30.993Z,0
2016-04-11T03:10:31.012Z,0
2016-04-11T03:11:31.077Z,0
2016-04-11T03:12:31.127Z,0
2016-04-11T03:13:31.160Z,0
2016-04-11T03:14:31.227Z,0
2016-04-11T03:15:31.276Z,0
2016-04-11T03:16:31.341Z,0
2016-04-11T03:17:31.390Z,0
2016-04-11T03:18:31.424Z,0
2016-04-11T03:19:31.490Z,0
2016-04-11T03:20:31.539Z,0
2016-04-11T03:21:31.573Z,0
2016-04-11T03:22:31.638Z,0
2016-04-11T03:23:31.687Z,0
2016-04-11T03:24:31.753Z,0
2016-04-11T03:25:31.787Z,0
2016-04-11T03:26:31.851Z,0
2016-04-11T03:27:31.933Z,0
2016-04-11T03:28:31.951Z,0
2016-04-11T03:29:32.001Z,0
2016-04-11T03:30:32.034Z,0
2016-04-11T03:31:32.100Z,0
2016-04-11T03:32:32.149Z,0
2016-04-11T03:33:32.199Z,0
2016-04-11T03:34:32.280Z,0
2016-04-11T03:35:32.314Z,0
2016-04-11T03:36:32.363Z,0
2016-04-11T03:37:32.428Z,0
2016-04-11T03:38:32.462Z,0
2016-04-11T03:39:32.497Z,0
2016-04-11T03:40:32.577Z,0
2016-04-11T03:41:31.861Z,0
2016-04-11T03:42:33.020Z,0
2016-04-11T03:43:32.727Z,0
2016-04-11T03:44:32.760Z,0
2016-04-11T03:45:32.841Z,0
2016-04-11T03:46:32.874Z,0
2016-04-11T03:47:32.924Z,0
2016-04-11T03:48:33.005Z,0
2016-04-11T03:49:33.039Z,0
2016-04-11T03:50:33.073Z,0
2016-04-11T03:51:33.138Z,0
2016-04-11T03:52:33.187Z,0
2016-04-11T03:53:33.237Z,0
2016-04-11T03:54:33.287Z,0
2016-04-11T03:55:33.336Z,0
2016-04-11T03:56:33.401Z,0
2016-04-11T03:57:33.482Z,0
2016-04-11T03:58:33.501Z,0
2016-04-11T03:59:33.565Z,0
2016-04-11T04:00:33.615Z,0
2016-04-11T04:01:33.649Z,0
2016-04-11T04:02:33.699Z,0
2016-04-11T04:03:33.592Z,0
2016-04-11T04:04:33.798Z,0
2016-04-11T04:05:33.097Z,0
2016-04-11T04:06:33.897Z,0
2016-04-11T04:07:33.961Z,0
2016-04-11T04:08:34.012Z,0
2016-04-11T04:09:34.061Z,0
2016-04-11T04:10:34.111Z,0
2016-04-11T04:11:34.019Z,0
2016-04-11T04:12:34.336Z,0
2016-04-11T04:13:34.260Z,0
2016-04-11T04:14:34.325Z,0
2016-04-11T04:15:34.374Z,0
2016-04-11T04:16:34.408Z,0
2016-04-11T04:17:34.474Z,0
2016-04-11T04:18:34.539Z,0
2016-04-11T04:19:34.432Z,0
2016-04-11T04:20:34.622Z,0
2016-04-11T04:21:34.687Z,0
2016-04-11T04:22:34.737Z,0
2016-04-11T04:23:34.787Z,0
2016-04-11T04:24:34.870Z,0
2016-04-11T04:25:34.962Z,0
2016-04-11T04:26:35.072Z,0
2016-04-11T04:27:35.540Z,0
2016-04-11T04:28:35.259Z,0
2016-04-11T04:29:35.331Z,0
2016-04-11T04:30:35.380Z,0
2016-04-11T04:31:35.476Z,0
2016-04-11T04:32:35.512Z,0
2016-04-11T04:33:35.639Z,0
2016-04-11T04:34:35.665Z,0
2016-04-11T04:35:35.719Z,0
2016-04-11T04:36:35.775Z,0
2016-04-11T04:37:35.831Z,0
2016-04-11T04:38:35.886Z,0
2016-04-11T04:39:35.939Z,0
2016-04-11T04:40:35.990Z,0
2016-04-11T04:41:36.042Z,0
2016-04-11T04:42:36.781Z,0
2016-04-11T04:43:36.160Z,0
2016-04-11T04:44:36.195Z,0
2016-04-11T04:45:36.261Z,0
2016-04-11T04:46:36.311Z,0
2016-04-11T04:47:36.362Z,0
2016-04-11T04:48:36.428Z,0
2016-04-11T04:49:36.462Z,0
2016-04-11T04:50:36.528Z,0
2016-04-11T04:51:36.562Z,0
2016-04-11T04:52:36.643Z,0
2016-04-11T04:53:36.677Z,0
2016-04-11T04:54:36.727Z,0
2016-04-11T04:55:36.776Z,0
2016-04-11T04:56:36.670Z,0
2016-04-11T04:57:37.485Z,0
2016-04-11T04:58:36.926Z,0
2016-04-11T04:59:36.990Z,0
2016-04-11T05:00:37.040Z,0
2016-04-11T05:01:37.105Z,0
2016-04-11T05:02:37.124Z,0
2016-04-11T05:03:37.189Z,0
2016-04-11T05:04:37.254Z,0
2016-04-11T05:05:37.289Z,0
2016-04-11T05:06:37.384Z,0
2016-04-11T05:07:37.403Z,0
2016-04-11T05:08:36.686Z,0
2016-04-11T05:09:37.502Z,0
2016-04-11T05:10:37.552Z,0
2016-04-11T05:11:37.617Z,0
2016-04-11T05:12:37.807Z,0
2016-04-11T05:13:37.716Z,0
2016-04-11T05:14:37.749Z,0
2016-04-11T05:15:37.815Z,0
2016-04-11T05:16:37.849Z,0
2016-04-11T05:17:37.914Z,0
2016-04-11T05:18:37.979Z,0
2016-04-11T05:19:38.013Z,0
2016-04-11T05:20:38.063Z,0
2016-04-11T05:21:38.127Z,0
2016-04-11T05:22:38.177Z,0
2016-04-11T05:23:38.227Z,0
2016-04-11T05:24:38.276Z,0
2016-04-11T05:25:38.310Z,0
2016-04-11T05:26:38.220Z,0
2016-04-11T05:27:38.488Z,0
2016-04-11T05:28:38.304Z,0
2016-04-11T05:29:38.540Z,0
2016-04-11T05:30:38.590Z,0
2016-04-11T05:31:38.639Z,0
2016-04-11T05:32:38.689Z,8
2016-04-11T05:33:38.739Z,8
2016-04-11T05:34:38.787Z,8
2016-04-11T05:35:38.853Z,8
2016-04-11T05:36:38.887Z,8
2016-04-11T05:37:38.983Z,12
2016-04-11T05:38:39.002Z,12
2016-04-11T05:39:39.051Z,12
2016-04-11T05:40:39.147Z,8
2016-04-11T05:41:39.135Z,8
2016-04-11T05:42:39.295Z,12
2016-04-11T05:43:39.266Z,8
2016-04-11T05:44:39.315Z,8
2016-04-11T05:45:39.364Z,8
2016-04-11T05:46:39.430Z,8
2016-04-11T05:47:39.464Z,8
2016-04-11T05:48:39.513Z,12
2016-04-11T05:49:39.578Z,12
2016-04-11T05:50:39.612Z,12
2016-04-11T05:51:39.662Z,12
2016-04-11T05:52:39.711Z,12
2016-04-11T05:53:39.777Z,12
2016-04-11T05:54:39.810Z,12
2016-04-11T05:55:39.876Z,12
2016-04-11T05:56:39.910Z,12
2016-04-11T05:57:39.960Z,12
2016-04-11T05:58:40.009Z,12
2016-04-11T05:59:40.059Z,12
2016-04-11T06:00:40.108Z,16
2016-04-11T06:01:40.189Z,16
2016-04-11T06:02:40.223Z,16
2016-04-11T06:03:40.272Z,16
2016-04-11T06:04:40.337Z,12
2016-04-11T06:05:40.371Z,12
2016-04-11T06:06:40.421Z,12
2016-04-11T06:07:40.455Z,12
2016-04-11T06:08:40.521Z,12
2016-04-11T06:09:40.569Z,16
2016-04-11T06:10:40.634Z,16
2016-04-11T06:11:40.669Z,16
2016-04-11T06:12:40.719Z,16
2016-04-11T06:13:40.767Z,16
2016-04-11T06:14:40.817Z,16
2016-04-11T06:15:40.867Z,16
2016-04-11T06:16:40.901Z,20
2016-04-11T06:17:40.967Z,20
2016-04-11T06:18:41.016Z,20
2016-04-11T06:19:41.049Z,20
2016-04-11T06:20:41.116Z,16
2016-04-11T06:21:41.164Z,16
2016-04-11T06:22:41.198Z,16
2016-04-11T06:23:41.280Z,16
2016-04-11T06:24:41.297Z,20
2016-04-11T06:25:41.347Z,16
2016-04-11T06:26:41.413Z,20
2016-04-11T06:27:41.462Z,16
2016-04-11T06:28:41.496Z,20
2016-04-11T06:29:41.561Z,16
2016-04-11T06:30:41.626Z,20
2016-04-11T06:31:41.645Z,20
2016-04-11T06:32:41.694Z,20
2016-04-11T06:33:41.760Z,24
2016-04-11T06:34:41.793Z,24
2016-04-11T06:35:41.842Z,28
2016-04-11T06:36:41.924Z,28
2016-04-11T06:37:41.942Z,32
2016-04-11T06:38:42.006Z,36
2016-04-11T06:39:42.057Z,40
2016-04-11T06:40:42.090Z,36
2016-04-11T06:41:42.156Z,40
2016-04-11T06:42:42.221Z,24
2016-04-11T06:43:42.239Z,40
2016-04-11T06:44:42.305Z,32
2016-04-11T06:45:42.354Z,36
2016-04-11T06:46:42.403Z,36
2016-04-11T06:47:42.453Z,40
2016-04-11T06:48:42.503Z,40
2016-04-11T06:49:42.553Z,44
2016-04-11T06:50:42.586Z,36
2016-04-11T06:51:42.635Z,40
2016-04-11T06:52:42.686Z,48
2016-04-11T06:53:42.750Z,48
2016-04-11T06:54:42.799Z,48
2016-04-11T06:55:42.850Z,48
2016-04-11T06:56:42.899Z,52
2016-04-11T06:57:42.949Z,48
2016-04-11T06:58:42.999Z,48
2016-04-11T06:59:43.048Z,52
2016-04-11T07:00:43.098Z,52
2016-04-11T07:01:43.131Z,52
2016-04-11T07:02:43.196Z,56
2016-04-11T07:03:43.231Z,56
2016-04-11T07:04:43.280Z,60
2016-04-11T07:05:43.377Z,60
2016-04-11T07:06:43.410Z,60
2016-04-11T07:07:43.460Z,64
2016-04-11T07:08:43.495Z,68
2016-04-11T07:09:43.543Z,68
2016-04-11T07:10:43.609Z,68
2016-04-11T07:11:43.642Z,68
2016-04-11T07:12:43.692Z,72
2016-04-11T07:13:43.758Z,72
2016-04-11T07:14:43.822Z,68
2016-04-11T07:15:43.841Z,76
2016-04-11T07:16:43.906Z,76
2016-04-11T07:17:43.956Z,72
2016-04-11T07:18:43.990Z,76
2016-04-11T07:19:44.055Z,76
2016-04-11T07:20:44.105Z,76
2016-04-11T07:21:44.138Z,76
2016-04-11T07:22:44.188Z,76
2016-04-11T07:23:44.253Z,76
2016-04-11T07:24:44.304Z,80
2016-04-11T07:25:44.354Z,80
2016-04-11T07:26:44.404Z,76
2016-04-11T07:27:44.454Z,76
2016-04-11T07:28:44.565Z,72
2016-04-11T07:29:44.584Z,76
2016-04-11T07:30:44.617Z,76
2016-04-11T07:31:44.667Z,76
2016-04-11T07:32:44.702Z,72
2016-04-11T07:33:44.767Z,76
2016-04-11T07:34:44.690Z,76
2016-04-11T07:35:44.865Z,76
2016-04-11T07:36:44.931Z,76
2016-04-11T07:37:44.995Z,76
2016-04-11T07:38:45.030Z,76
2016-04-11T07:39:45.064Z,72
2016-04-11T07:40:45.145Z,72
2016-04-11T07:41:45.178Z,72
2016-04-11T07:42:45.212Z,72
2016-04-11T07:43:45.262Z,72
2016-04-11T07:44:45.358Z,72
2016-04-11T07:45:45.470Z,72
2016-04-11T07:46:45.427Z,68
2016-04-11T07:47:45.460Z,72
2016-04-11T07:48:45.589Z,72
2016-04-11T07:49:45.560Z,72
2016-04-11T07:50:45.641Z,72
2016-04-11T07:51:45.674Z,72
2016-04-11T07:52:45.723Z,72
2016-04-11T07:53:45.774Z,68
2016-04-11T07:54:45.823Z,72
2016-04-11T07:55:45.888Z,72
2016-04-11T07:56:45.922Z,68
2016-04-11T07:57:45.987Z,72
2016-04-11T07:58:46.021Z,68
2016-04-11T07:59:46.087Z,68
2016-04-11T08:00:46.135Z,68
2016-04-11T08:01:46.170Z,72
2016-04-11T08:02:46.235Z,68
2016-04-11T08:03:46.285Z,68
2016-04-11T08:04:46.334Z,68
2016-04-11T08:05:46.384Z,64
2016-04-11T08:06:46.433Z,68
2016-04-11T08:07:46.483Z,68
2016-04-11T08:08:46.548Z,68
2016-04-11T08:09:46.617Z,68
2016-04-11T08:10:46.637Z,68
2016-04-11T08:11:46.686Z,64
2016-04-11T08:12:46.750Z,64
2016-04-11T08:13:46.800Z,64
2016-04-11T08:14:46.835Z,64
2016-04-11T08:15:46.900Z,64
2016-04-11T08:16:46.965Z,68
2016-04-11T08:17:47.019Z,68
2016-04-11T08:18:47.054Z,64
2016-04-11T08:19:47.118Z,68
2016-04-11T08:20:47.169Z,64
2016-04-11T08:21:47.218Z,68
2016-04-11T08:22:47.282Z,64
2016-04-11T08:23:47.317Z,64
2016-04-11T08:24:47.365Z,64
2016-04-11T08:25:47.260Z,64
2016-04-11T08:26:47.450Z,64
2016-04-11T08:27:47.531Z,64
2016-04-11T08:28:47.565Z,68
2016-04-11T08:29:47.614Z,64
2016-04-11T08:30:47.679Z,64
2016-04-11T08:31:47.729Z,64
2016-04-11T08:32:47.795Z,64
2016-04-11T08:33:47.844Z,68
2016-04-11T08:34:47.878Z,64
2016-04-11T08:35:47.928Z,68
2016-04-11T08:36:47.977Z,64
2016-04-11T08:37:48.011Z,64
2016-04-11T08:38:48.092Z,64
2016-04-11T08:39:48.125Z,64
2016-04-11T08:40:48.159Z,64
2016-04-11T08:41:48.241Z,52
2016-04-11T08:42:48.289Z,64
2016-04-11T08:43:48.339Z,60
2016-04-11T08:44:48.389Z,64
2016-04-11T08:45:48.438Z,60
2016-04-11T08:46:48.472Z,64
2016-04-11T08:47:48.553Z,60
2016-04-11T08:48:48.602Z,64
2016-04-11T08:49:48.668Z,60
2016-04-11T08:50:48.718Z,60
2016-04-11T08:51:48.768Z,60
2016-04-11T08:52:48.832Z,60
2016-04-11T08:53:48.865Z,60
2016-04-11T08:54:48.901Z,60
2016-04-11T08:55:48.981Z,60
2016-04-11T08:56:49.015Z,60
2016-04-11T08:57:49.048Z,60
2016-04-11T08:58:49.098Z,60
2016-04-11T08:59:49.179Z,60
2016-04-11T09:00:49.228Z,60
2016-04-11T09:01:49.279Z,60
2016-04-11T09:02:49.312Z,60
2016-04-11T09:03:49.378Z,60
2016-04-11T09:04:49.442Z,60
2016-04-11T09:05:49.508Z,56
2016-04-11T09:06:49.511Z,56
2016-04-11T09:07:49.575Z,56
2016-04-11T09:08:49.609Z,56
2016-04-11T09:09:49.659Z,56
2016-04-11T09:10:49.725Z,56
2016-04-11T09:11:49.758Z,56
2016-04-11T09:12:49.824Z,56
2016-04-11T09:13:49.905Z,56
2016-04-11T09:14:49.938Z,56
2016-04-11T09:15:50.003Z,56
2016-04-11T09:16:50.038Z,56
2016-04-11T09:17:50.087Z,56
2016-04-11T09:18:50.136Z,56
2016-04-11T09:19:50.186Z,56
2016-04-11T09:20:50.251Z,52
2016-04-11T09:21:50.301Z,56
2016-04-11T09:22:50.335Z,52
2016-04-11T09:23:50.400Z,56
2016-04-11T09:24:50.449Z,52
2016-04-11T09:25:50.515Z,56
2016-04-11T09:26:50.533Z,52
2016-04-11T09:27:50.598Z,52
2016-04-11T09:28:50.648Z,48
2016-04-11T09:29:50.698Z,52
2016-04-11T09:30:50.748Z,52
2016-04-11T09:31:50.812Z,52
2016-04-11T09:32:50.862Z,52
2016-04-11T09:33:50.926Z,48
2016-04-11T09:34:50.961Z,48
2016-04-11T09:35:51.026Z,48
2016-04-11T09:36:51.076Z,52
2016-04-11T09:37:51.109Z,48
2016-04-11T09:38:51.175Z,48
2016-04-11T09:39:51.225Z,48
2016-04-11T09:40:51.305Z,48
2016-04-11T09:41:51.323Z,52
2016-04-11T09:42:51.372Z,52
2016-04-11T09:43:51.454Z,48
2016-04-11T09:44:51.488Z,48
2016-04-11T09:45:51.537Z,48
2016-04-11T09:46:51.586Z,48
2016-04-11T09:47:51.652Z,48
2016-04-11T09:48:51.671Z,48
2016-04-11T09:49:51.736Z,48
2016-04-11T09:50:51.785Z,44
2016-04-11T09:51:51.850Z,44
2016-04-11T09:52:51.885Z,44
2016-04-11T09:53:51.965Z,44
2016-04-11T09:54:51.999Z,44
2016-04-11T09:55:52.032Z,48
2016-04-11T09:56:52.099Z,48
2016-04-11T09:57:52.148Z,48
2016-04-11T09:58:52.275Z,44
2016-04-11T09:59:52.246Z,48
2016-04-11T10:00:52.328Z,48
2016-04-11T10:01:52.362Z,48
2016-04-11T10:02:52.411Z,48
2016-04-11T10:03:52.476Z,44
2016-04-11T10:04:52.494Z,44
2016-04-11T10:05:52.576Z,44
2016-04-11T10:06:52.594Z,44
2016-04-11T10:07:52.659Z,44
2016-04-11T10:08:52.708Z,40
2016-04-11T10:09:52.759Z,44
2016-04-11T10:10:52.058Z,40
2016-04-11T10:11:52.873Z,40
2016-04-11T10:12:52.906Z,44
2016-04-11T10:13:52.972Z,40
2016-04-11T10:14:53.021Z,40
2016-04-11T10:15:53.071Z,44
2016-04-11T10:16:53.121Z,44
2016-04-11T10:17:53.169Z,40
2016-04-11T10:18:53.219Z,40
2016-04-11T10:19:53.269Z,40
2016-04-11T10:20:53.303Z,40
2016-04-11T10:21:53.384Z,40
2016-04-11T10:22:53.418Z,40
2016-04-11T10:23:53.483Z,40
2016-04-11T10:24:53.517Z,40
2016-04-11T10:25:53.582Z,40
2016-04-11T10:26:53.632Z,36
2016-04-11T10:27:53.696Z,36
2016-04-11T10:28:53.747Z,40
2016-04-11T10:29:53.796Z,40
2016-04-11T10:30:53.830Z,36
2016-04-11T10:31:53.879Z,36
2016-04-11T10:32:53.929Z,40
2016-04-11T10:33:53.995Z,40
2016-04-11T10:34:54.045Z,36
2016-04-11T10:35:54.093Z,36
2016-04-11T10:36:54.159Z,36
2016-04-11T10:37:54.192Z,40
2016-04-11T10:38:54.242Z,40
2016-04-11T10:39:54.308Z,40
2016-04-11T10:40:54.357Z,36
2016-04-11T10:41:54.391Z,36
2016-04-11T10:42:54.456Z,36
2016-04-11T10:43:54.506Z,36
2016-04-11T10:44:54.571Z,36
2016-04-11T10:45:54.620Z,36
2016-04-11T10:46:54.670Z,36
2016-04-11T10:47:54.735Z,36
2016-04-11T10:48:54.769Z,36
2016-04-11T10:49:54.803Z,36
2016-04-11T10:50:54.868Z,36
2016-04-11T10:51:54.933Z,36
2016-04-11T10:52:54.968Z,36
2016-04-11T10:53:55.033Z,32
2016-04-11T10:54:54.926Z,32
2016-04-11T10:55:55.116Z,36
2016-04-11T10:56:55.181Z,36
2016-04-11T10:57:55.216Z,36
2016-04-11T10:58:55.374Z,36
2016-04-11T10:59:55.346Z,36
2016-04-11T11:00:55.379Z,36
2016-04-11T11:01:55.445Z,36
2016-04-11T11:02:55.494Z,36
2016-04-11T11:03:55.544Z,32
2016-04-11T11:04:55.297Z,32
2016-04-11T11:05:55.643Z,32
2016-04-11T11:06:55.692Z,32
2016-04-11T11:07:55.742Z,36
2016-04-11T11:08:55.806Z,32
2016-04-11T11:09:55.842Z,32
2016-04-11T11:10:55.907Z,32
2016-04-11T11:11:55.956Z,32
2016-04-11T11:12:55.989Z,32
2016-04-11T11:13:56.087Z,32
2016-04-11T11:14:56.105Z,32
2016-04-11T11:15:56.170Z,32
2016-04-11T11:16:56.235Z,32
2016-04-11T11:17:56.254Z,28
2016-04-11T11:18:56.303Z,28
2016-04-11T11:19:56.368Z,32
2016-04-11T11:20:56.418Z,32
2016-04-11T11:21:56.467Z,32
2016-04-11T11:22:56.516Z,32
2016-04-11T11:23:56.551Z,32
2016-04-11T11:24:56.632Z,32
2016-04-11T11:25:56.682Z,28
2016-04-11T11:26:56.715Z,28
2016-04-11T11:27:56.765Z,28
2016-04-11T11:28:56.877Z,28
2016-04-11T11:29:56.864Z,32
2016-04-11T11:30:56.929Z,28
2016-04-11T11:31:56.979Z,32
2016-04-11T11:32:57.028Z,28
2016-04-11T11:33:57.093Z,28
2016-04-11T11:34:57.142Z,28
2016-04-11T11:35:57.176Z,28
2016-04-11T11:36:57.242Z,28
2016-04-11T11:37:57.292Z,28
2016-04-11T11:38:57.342Z,28
2016-04-11T11:39:57.375Z,28
2016-04-11T11:40:57.456Z,28
2016-04-11T11:41:57.490Z,28
2016-04-11T11:42:57.539Z,28
2016-04-11T11:43:57.698Z,28
2016-04-11T11:44:57.654Z,28
2016-04-11T11:45:57.704Z,24
2016-04-11T11:46:57.753Z,24
2016-04-11T11:47:57.803Z,24
2016-04-11T11:48:57.869Z,24
2016-04-11T11:49:57.902Z,28
2016-04-11T11:50:57.967Z,28
2016-04-11T11:51:58.016Z,28
2016-04-11T11:52:58.067Z,24
2016-04-11T11:53:58.100Z,24
2016-04-11T11:54:58.166Z,24
2016-04-11T11:55:58.230Z,24
2016-04-11T11:56:58.265Z,24
2016-04-11T11:57:58.314Z,24
2016-04-11T11:58:58.254Z,24
2016-04-11T11:59:58.413Z,28
2016-04-11T12:00:58.478Z,24
2016-04-11T12:01:58.513Z,24
2016-04-11T12:02:58.577Z,24
2016-04-11T12:03:58.626Z,24
2016-04-11T12:04:58.677Z,24
2016-04-11T12:05:58.727Z,24
2016-04-11T12:06:58.792Z,24
2016-04-11T12:07:58.684Z,24
2016-04-11T12:08:58.876Z,20
2016-04-11T12:09:58.939Z,20
2016-04-11T12:10:59.006Z,24
2016-04-11T12:11:59.039Z,24
2016-04-11T12:12:59.089Z,24
2016-04-11T12:13:59.139Z,24
2016-04-11T12:14:59.204Z,24
2016-04-11T12:15:59.253Z,20
2016-04-11T12:16:59.286Z,20
2016-04-11T12:17:59.353Z,20
2016-04-11T12:18:59.417Z,20
2016-04-11T12:19:59.436Z,20
2016-04-11T12:20:59.547Z,24
2016-04-11T12:21:59.566Z,20
2016-04-11T12:22:59.678Z,20
2016-04-11T12:23:59.650Z,20
2016-04-11T12:24:59.715Z,20
2016-04-11T12:25:59.780Z,20
2016-04-11T12:26:59.814Z,20
2016-04-11T12:27:59.863Z,16
2016-04-11T12:28:59.835Z,16
2016-04-11T12:29:59.993Z,20
2016-04-11T12:31:00.013Z,20
2016-04-11T12:32:00.077Z,20
2016-04-11T12:33:00.143Z,20
2016-04-11T12:34:00.160Z,20
2016-04-11T12:35:00.226Z,20
2016-04-11T12:36:00.276Z,16
2016-04-11T12:37:00.340Z,16
2016-04-11T12:38:00.390Z,16
2016-04-11T12:39:00.440Z,16
2016-04-11T12:40:00.490Z,16
2016-04-11T12:41:00.555Z,16
2016-04-11T12:42:00.589Z,16
2016-04-11T12:43:00.653Z,16
2016-04-11T12:44:00.953Z,16
2016-04-11T12:45:00.737Z,20
2016-04-11T12:46:00.787Z,20
2016-04-11T12:47:00.867Z,16
2016-04-11T12:48:00.902Z,16
2016-04-11T12:49:00.935Z,16
2016-04-11T12:50:01.001Z,16
2016-04-11T12:51:01.067Z,16
2016-04-11T12:52:00.944Z,16
2016-04-11T12:53:01.134Z,16
2016-04-11T12:54:01.199Z,16
2016-04-11T12:55:01.264Z,16
2016-04-11T12:56:01.344Z,16
2016-04-11T12:57:01.379Z,16
2016-04-11T12:58:01.429Z,16
2016-04-11T12:59:01.477Z,16
2016-04-11T13:00:01.513Z,12
2016-04-11T13:01:01.577Z,12
2016-04-11T13:02:01.611Z,12
2016-04-11T13:03:01.660Z,12
2016-04-11T13:04:01.726Z,16
2016-04-11T13:05:01.760Z,12
2016-04-11T13:06:01.825Z,16
2016-04-11T13:07:01.874Z,16
2016-04-11T13:08:01.940Z,12
2016-04-11T13:09:01.973Z,12
2016-04-11T13:10:02.023Z,12
2016-04-11T13:11:02.073Z,12
2016-04-11T13:12:02.138Z,16
2016-04-11T13:13:02.188Z,16
2016-04-11T13:14:02.222Z,16
2016-04-11T13:15:02.271Z,16
2016-04-11T13:16:02.336Z,16
2016-04-11T13:17:02.370Z,16
2016-04-11T13:18:02.420Z,16
2016-04-11T13:19:02.500Z,16
2016-04-11T13:20:02.550Z,16
2016-04-11T13:21:02.600Z,16
2016-04-11T13:22:02.649Z,16
2016-04-11T13:23:02.699Z,16
2016-04-11T13:24:01.983Z,16
2016-04-11T13:25:02.830Z,16
2016-04-11T13:26:02.847Z,16
2016-04-11T13:27:02.897Z,20
2016-04-11T13:28:02.977Z,16
2016-04-11T13:29:03.012Z,16
2016-04-11T13:30:03.061Z,16
2016-04-11T13:31:03.137Z,16
2016-04-11T13:32:03.247Z,16
2016-04-11T13:33:03.342Z,16
2016-04-11T13:34:03.436Z,16
2016-04-11T13:35:03.546Z,20
2016-04-11T13:36:03.630Z,20
2016-04-11T13:37:03.680Z,20
2016-04-11T13:38:03.730Z,20
2016-04-11T13:39:03.795Z,20
2016-04-11T13:40:03.892Z,20
2016-04-11T13:41:03.933Z,16
2016-04-11T13:42:03.989Z,16
2016-04-11T13:43:04.043Z,20
2016-04-11T13:44:04.098Z,20
2016-04-11T13:45:04.170Z,20
2016-04-11T13:46:04.206Z,20
2016-04-11T13:47:04.258Z,20
2016-04-11T13:48:04.325Z,20
2016-04-11T13:49:04.377Z,20
2016-04-11T13:50:04.429Z,20
2016-04-11T13:51:04.496Z,20
2016-04-11T13:52:04.530Z,20
2016-04-11T13:53:04.596Z,20
2016-04-11T13:54:04.490Z,20
2016-04-11T13:55:04.728Z,20
2016-04-11T13:56:04.575Z,20
2016-04-11T13:57:04.797Z,20
2016-04-11T13:58:04.862Z,20
2016-04-11T13:59:04.912Z,24
2016-04-11T14:00:04.947Z,24
2016-04-11T14:01:05.011Z,24
2016-04-11T14:02:05.061Z,24
2016-04-11T14:03:05.111Z,24
2016-04-11T14:04:05.161Z,20
2016-04-11T14:05:05.210Z,20
2016-04-11T14:06:05.275Z,20
2016-04-11T14:07:05.309Z,20
2016-04-11T14:08:05.358Z,20
2016-04-11T14:09:05.408Z,24
2016-04-11T14:10:05.474Z,24
2016-04-11T14:11:05.523Z,24
2016-04-11T14:12:05.572Z,24
2016-04-11T14:13:05.638Z,24
2016-04-11T14:14:05.672Z,24
2016-04-11T14:15:05.737Z,24
2016-04-11T14:16:05.802Z,24
2016-04-11T14:17:05.836Z,24
2016-04-11T14:18:05.885Z,20
2016-04-11T14:19:05.935Z,20
2016-04-11T14:20:05.985Z,20
2016-04-11T14:21:06.019Z,24
2016-04-11T14:22:06.099Z,24
2016-04-11T14:23:06.134Z,24
2016-04-11T14:24:06.199Z,24
2016-04-11T14:25:06.232Z,24
2016-04-11T14:26:06.298Z,24
2016-04-11T14:27:06.348Z,28
2016-04-11T14:28:06.397Z,28